Time;durP1;ratioP1;P1;durP2;ratioP2;P2;SDS_P1;SDS_P2;PMS_P1;PMS_P2;Temp;Humidity;BMP_temperature;BMP_pressure;BME280_temperature;BME280_humidity;BME280_pressure;Samples;Min_cycle;Max_cycle;Signal;HPM_P1;HPM_P2
2022/07/14 00:01:36;;;;;;;8.00;2.47;;;20.40;99.90;;;;;;5069577;28;20527;-82
2022/07/14 00:04:03;;;;;;;6.63;2.30;;;20.40;99.90;;;;;;5082903;28;20484;-82
2022/07/14 00:06:32;;;;;;;9.03;3.00;;;20.30;99.90;;;;;;5083508;28;20475;-82
2022/07/14 00:08:59;;;;;;;6.00;2.70;;;20.30;99.90;;;;;;5074016;28;21037;-81
2022/07/14 00:11:26;;;;;;;5.97;2.47;;;20.20;99.90;;;;;;5064058;28;20515;-83
2022/07/14 00:13:53;;;;;;;6.17;2.70;;;20.20;99.90;;;;;;5063748;28;20479;-81
2022/07/14 00:16:20;;;;;;;7.90;2.40;;;20.20;99.90;;;;;;5064898;28;20508;-81
2022/07/14 00:18:47;;;;;;;5.20;2.53;;;20.10;99.90;;;;;;5065193;28;20515;-81
2022/07/14 00:21:16;;;;;;;9.40;2.77;;;20.10;99.90;;;;;;5064018;28;20444;-81
2022/07/14 00:23:46;;;;;;;7.20;2.33;;;20.00;99.90;;;;;;5064044;28;20455;-82
2022/07/14 00:26:13;;;;;;;7.23;2.40;;;20.00;99.90;;;;;;5065765;28;20475;-82
2022/07/14 00:28:40;;;;;;;6.27;2.50;;;19.90;99.90;;;;;;5068465;28;20514;-82
2022/07/14 00:31:08;;;;;;;7.83;2.27;;;19.90;99.90;;;;;;5075071;28;20479;-83
2022/07/14 00:33:35;;;;;;;10.33;2.47;;;19.90;99.90;;;;;;5065302;28;20554;-82
2022/07/14 00:36:01;;;;;;;9.10;3.10;;;19.90;99.90;;;;;;5065683;28;20463;-82
2022/07/14 00:38:28;;;;;;;5.67;2.17;;;19.80;99.90;;;;;;5067619;28;20471;-81
2022/07/14 00:40:57;;;;;;;10.60;2.50;;;19.80;99.90;;;;;;5062150;28;20452;-82
2022/07/14 00:43:24;;;;;;;9.80;2.60;;;19.70;99.90;;;;;;5062119;28;20492;-81
2022/07/14 00:45:50;;;;;;;7.13;2.20;;;19.70;99.90;;;;;;5062593;28;20472;-82
2022/07/14 00:48:19;;;;;;;5.83;2.33;;;19.70;99.90;;;;;;5062791;28;20547;-83
2022/07/14 00:50:46;;;;;;;7.03;2.30;;;19.60;99.90;;;;;;5062954;28;20462;-82
2022/07/14 00:53:13;;;;;;;10.40;3.77;;;19.60;99.90;;;;;;5060279;28;20849;-82
2022/07/14 00:55:42;;;;;;;6.97;2.33;;;19.60;99.90;;;;;;5062645;28;20487;-82
2022/07/14 00:58:10;;;;;;;9.60;2.73;;;19.60;99.90;;;;;;5061723;28;20472;-82
2022/07/14 01:00:38;;;;;;;8.40;2.37;;;19.60;99.90;;;;;;5059338;28;20498;-82
2022/07/14 01:03:06;;;;;;;12.07;3.13;;;19.60;99.90;;;;;;5059961;28;20824;-80
2022/07/14 01:05:33;;;;;;;8.27;2.60;;;19.50;99.90;;;;;;5064387;28;20440;-81
2022/07/14 01:08:01;;;;;;;5.43;2.77;;;19.50;99.90;;;;;;5064535;28;20567;-80
2022/07/14 01:10:28;;;;;;;8.10;2.50;;;19.50;99.90;;;;;;5064067;28;20459;-83
2022/07/14 01:12:59;;;;;;;12.40;2.70;;;19.40;99.90;;;;;;5062286;28;21054;-82
2022/07/14 01:15:28;;;;;;;7.30;2.87;;;19.40;99.90;;;;;;5062857;28;20490;-82
2022/07/14 01:17:55;;;;;;;8.07;2.23;;;19.40;99.90;;;;;;5064329;28;20470;-82
2022/07/14 01:20:23;;;;;;;7.87;2.43;;;19.30;99.90;;;;;;5064414;28;20467;-82
2022/07/14 01:22:52;;;;;;;9.43;3.10;;;19.30;99.90;;;;;;5063827;28;20464;-81
2022/07/14 01:25:20;;;;;;;7.63;2.80;;;19.20;99.90;;;;;;5064103;28;20486;-82
2022/07/14 01:27:49;;;;;;;11.53;2.77;;;19.20;99.90;;;;;;5062328;28;20483;-82
2022/07/14 01:30:16;;;;;;;7.57;2.20;;;19.10;99.90;;;;;;5061280;28;20952;-81
2022/07/14 01:32:43;;;;;;;9.07;3.40;;;19.10;99.90;;;;;;5061680;28;20503;-82
2022/07/14 01:35:10;;;;;;;5.77;2.17;;;19.00;99.90;;;;;;5060343;28;20455;-82
2022/07/14 01:37:40;;;;;;;8.70;2.70;;;19.00;99.90;;;;;;5060167;28;20505;-81
2022/07/14 01:40:10;;;;;;;11.60;2.80;;;19.00;99.90;;;;;;5061087;28;20450;-82
2022/07/14 01:42:37;;;;;;;11.30;3.00;;;19.00;99.90;;;;;;5060071;28;20455;-82
2022/07/14 01:45:05;;;;;;;8.43;2.30;;;19.00;99.90;;;;;;5060674;28;20487;-81
2022/07/14 01:47:32;;;;;;;9.17;3.47;;;18.90;99.90;;;;;;5070095;28;20458;-81
2022/07/14 01:49:59;;;;;;;15.40;2.63;;;18.90;99.90;;;;;;5061054;28;20479;-80
2022/07/14 01:52:26;;;;;;;8.50;2.57;;;18.90;99.90;;;;;;5059826;28;20505;-81
2022/07/14 01:54:53;;;;;;;7.93;2.90;;;18.90;99.90;;;;;;5061961;28;20537;-81
2022/07/14 01:57:21;;;;;;;8.60;3.13;;;18.90;99.90;;;;;;5063177;28;20458;-82
2022/07/14 01:59:48;;;;;;;8.57;2.40;;;18.90;99.90;;;;;;5063529;28;20514;-83
2022/07/14 02:02:15;;;;;;;10.37;2.83;;;18.90;99.90;;;;;;5063514;28;20475;-80
2022/07/14 02:04:42;;;;;;;11.37;4.30;;;18.90;99.90;;;;;;5064169;28;20480;-82
2022/07/14 02:07:08;;;;;;;6.60;2.57;;;18.90;99.90;;;;;;5063418;28;20520;-82
2022/07/14 02:12:21;;;;;;;8.90;3.20;;;18.90;99.90;;;;;;5063801;28;20529;-82
2022/07/14 02:14:48;;;;;;;6.93;2.20;;;18.80;99.90;;;;;;5064578;28;20524;-81
2022/07/14 02:17:15;;;;;;;10.57;2.67;;;18.80;99.90;;;;;;5069921;28;20474;-81
2022/07/14 02:19:42;;;;;;;11.17;2.77;;;18.80;99.90;;;;;;5067742;28;21194;-81
2022/07/14 02:22:09;;;;;;;8.27;2.83;;;18.80;99.90;;;;;;5069302;28;20447;-82
2022/07/14 02:24:36;;;;;;;7.30;2.67;;;18.70;99.90;;;;;;5070684;28;20448;-80
2022/07/14 02:27:03;;;;;;;8.30;2.43;;;18.70;99.90;;;;;;5065805;28;20455;-83
2022/07/14 02:29:32;;;;;;;9.80;2.80;;;18.70;99.90;;;;;;5062732;28;20521;-82
2022/07/14 02:31:59;;;;;;;6.03;2.50;;;18.70;99.90;;;;;;5065093;28;20515;-80
2022/07/14 02:34:26;;;;;;;9.70;2.73;;;18.60;99.90;;;;;;5072360;28;20448;-80
2022/07/14 02:36:53;;;;;;;10.83;2.77;;;18.60;99.90;;;;;;5058537;28;20481;-81
2022/07/14 02:39:20;;;;;;;10.03;2.90;;;18.50;99.90;;;;;;5058870;28;20499;-81
2022/07/14 02:41:47;;;;;;;11.27;2.63;;;18.50;99.90;;;;;;5059066;28;20521;-82
2022/07/14 02:44:14;;;;;;;10.80;3.33;;;18.60;99.90;;;;;;5058584;28;20475;-81
2022/07/14 02:46:42;;;;;;;8.30;2.60;;;18.60;99.90;;;;;;5060571;28;20488;-82
2022/07/14 02:49:09;;;;;;;7.20;3.03;;;18.60;99.90;;;;;;5062511;28;21026;-82
2022/07/14 02:51:36;;;;;;;10.33;3.33;;;18.60;99.90;;;;;;5063385;28;20458;-83
2022/07/14 02:54:03;;;;;;;11.10;2.60;;;18.60;99.90;;;;;;5066028;28;20435;-81
2022/07/14 02:56:30;;;;;;;5.90;2.70;;;18.60;99.90;;;;;;5074972;28;20456;-81
2022/07/14 02:58:57;;;;;;;12.37;2.37;;;18.60;99.90;;;;;;5074593;28;20474;-82
2022/07/14 03:01:24;;;;;;;8.57;3.03;;;18.60;99.90;;;;;;5062097;28;20566;-81
2022/07/14 03:03:52;;;;;;;12.77;3.27;;;18.60;99.90;;;;;;5057559;28;20491;-81
2022/07/14 03:06:20;;;;;;;9.90;2.67;;;18.60;99.90;;;;;;5058272;28;20974;-81
2022/07/14 03:08:47;;;;;;;7.53;2.33;;;18.50;99.90;;;;;;5058360;28;20471;-80
2022/07/14 03:11:14;;;;;;;10.90;3.00;;;18.50;99.90;;;;;;5057969;28;20477;-81
2022/07/14 03:13:41;;;;;;;7.57;2.40;;;18.50;99.90;;;;;;5057168;28;20491;-80
2022/07/14 03:16:10;;;;;;;6.33;2.60;;;18.50;99.90;;;;;;5058472;28;20538;-82
2022/07/14 03:18:37;;;;;;;10.10;2.20;;;18.50;99.90;;;;;;5058221;28;20486;-82
2022/07/14 03:21:07;;;;;;;11.33;3.70;;;18.50;99.90;;;;;;5058171;28;21052;-81
2022/07/14 03:23:35;;;;;;;8.80;2.60;;;18.50;99.90;;;;;;5056839;28;20454;-81
2022/07/14 03:26:02;;;;;;;7.70;2.87;;;18.50;99.90;;;;;;5058367;28;20492;-81
2022/07/14 03:28:29;;;;;;;12.43;2.87;;;18.50;99.90;;;;;;5057743;28;20484;-82
2022/07/14 03:30:56;;;;;;;10.47;2.90;;;18.50;99.90;;;;;;5057785;28;20459;-81
2022/07/14 03:33:24;;;;;;;6.67;2.53;;;18.40;99.90;;;;;;5057441;28;20581;-81
2022/07/14 03:35:51;;;;;;;11.37;3.57;;;18.40;99.90;;;;;;5059530;28;20548;-81
2022/07/14 03:38:20;;;;;;;12.00;2.67;;;18.40;99.90;;;;;;5060236;28;20487;-82
2022/07/14 03:40:46;;;;;;;9.03;2.80;;;18.40;99.90;;;;;;5061914;28;20545;-81
2022/07/14 03:43:13;;;;;;;11.33;3.10;;;18.40;99.90;;;;;;5061431;28;20475;-81
2022/07/14 03:45:40;;;;;;;9.30;2.73;;;18.30;99.90;;;;;;5062036;28;20447;-81
2022/07/14 03:48:08;;;;;;;11.77;4.27;;;18.30;99.90;;;;;;5061349;28;21065;-81
2022/07/14 03:50:36;;;;;;;10.40;3.43;;;18.30;99.90;;;;;;5061979;28;20455;-81
2022/07/14 03:53:03;;;;;;;9.83;3.20;;;18.30;99.90;;;;;;5057855;28;20501;-81
2022/07/14 03:55:32;;;;;;;9.50;2.93;;;18.30;99.90;;;;;;5064968;28;20547;-80
2022/07/14 03:58:00;;;;;;;10.23;2.90;;;18.20;99.90;;;;;;5062482;28;20564;-81
2022/07/14 04:00:28;;;;;;;7.27;2.93;;;18.20;99.90;;;;;;5061853;28;20467;-81
2022/07/14 04:02:55;;;;;;;9.00;3.20;;;18.20;99.90;;;;;;5060478;28;20458;-82
2022/07/14 04:05:22;;;;;;;13.10;2.60;;;18.10;99.90;;;;;;5061341;28;20536;-81
2022/07/14 04:07:49;;;;;;;6.80;2.30;;;18.10;99.90;;;;;;5060818;28;20474;-81
2022/07/14 04:10:16;;;;;;;14.33;4.07;;;18.10;99.90;;;;;;5061488;28;20489;-81
2022/07/14 04:12:44;;;;;;;8.67;2.60;;;18.10;99.90;;;;;;5059684;28;20521;-83
2022/07/14 04:15:12;;;;;;;7.73;2.90;;;18.20;99.90;;;;;;5061157;28;20826;-81
2022/07/14 04:17:39;;;;;;;9.70;3.00;;;18.20;99.90;;;;;;5060895;28;20458;-81
2022/07/14 04:20:07;;;;;;;9.37;2.67;;;18.20;99.90;;;;;;5059994;28;20494;-82
2022/07/14 04:22:34;;;;;;;11.77;3.67;;;18.20;99.90;;;;;;5059823;28;20891;-80
2022/07/14 04:25:01;;;;;;;11.50;2.50;;;18.20;99.90;;;;;;5058371;28;20514;-82
2022/07/14 04:27:28;;;;;;;10.20;3.33;;;18.20;99.90;;;;;;5059687;28;20473;-81
2022/07/14 04:29:56;;;;;;;11.40;2.80;;;18.20;99.90;;;;;;5060145;28;20494;-82
2022/07/14 04:32:23;;;;;;;9.40;2.93;;;18.10;99.90;;;;;;5062004;28;20572;-81
2022/07/14 04:34:49;;;;;;;9.40;3.10;;;18.10;99.90;;;;;;5061439;28;20451;-83
2022/07/14 04:37:16;;;;;;;10.13;2.87;;;18.20;99.90;;;;;;5072322;28;20449;-79
2022/07/14 04:39:43;;;;;;;6.93;2.37;;;18.20;99.90;;;;;;5063480;28;20557;-80
2022/07/14 04:42:10;;;;;;;10.67;3.03;;;18.20;99.90;;;;;;5058753;28;20901;-81
2022/07/14 04:44:37;;;;;;;10.53;3.57;;;18.20;99.90;;;;;;5057862;28;20457;-80
2022/07/14 04:47:05;;;;;;;8.37;2.77;;;18.10;99.90;;;;;;5057302;28;20572;-81
2022/07/14 04:52:17;;;;;;;12.13;3.27;;;18.10;99.90;;;;;;5057557;28;20480;-81
2022/07/14 04:54:45;;;;;;;11.63;3.37;;;18.10;99.90;;;;;;5054687;28;20821;-81
2022/07/14 04:57:13;;;;;;;6.77;2.60;;;18.10;99.90;;;;;;5057842;28;20842;-81
2022/07/14 04:59:40;;;;;;;9.33;3.73;;;18.10;99.90;;;;;;5057422;28;20478;-81
2022/07/14 05:02:09;;;;;;;8.20;2.83;;;18.10;99.90;;;;;;5057232;28;20485;-81
2022/07/14 05:04:36;;;;;;;14.67;3.80;;;18.10;99.90;;;;;;5057325;28;20526;-81
2022/07/14 05:07:03;;;;;;;8.60;3.43;;;18.10;99.90;;;;;;5057352;28;20451;-82
2022/07/14 05:09:32;;;;;;;10.43;3.40;;;18.10;99.90;;;;;;5057708;28;20500;-81
2022/07/14 05:12:00;;;;;;;11.73;3.43;;;18.00;99.90;;;;;;5057238;28;20961;-81
2022/07/14 05:14:27;;;;;;;8.03;3.20;;;18.10;99.90;;;;;;5056648;28;20498;-81
2022/07/14 05:16:54;;;;;;;9.83;3.50;;;18.10;99.90;;;;;;5057615;28;20465;-82
2022/07/14 05:19:22;;;;;;;10.30;4.10;;;18.00;99.90;;;;;;5058501;28;20479;-80
2022/07/14 05:21:49;;;;;;;12.23;3.53;;;18.10;99.90;;;;;;5057218;28;20519;-81
2022/07/14 05:24:17;;;;;;;11.17;2.97;;;18.10;99.90;;;;;;5058024;28;20542;-82
2022/07/14 05:26:44;;;;;;;10.33;3.50;;;18.00;99.90;;;;;;5057781;28;20508;-81
2022/07/14 05:29:11;;;;;;;7.53;2.60;;;18.10;99.90;;;;;;5056763;28;20557;-80
2022/07/14 05:31:38;;;;;;;11.43;3.33;;;18.10;99.90;;;;;;5056771;28;20544;-83
2022/07/14 05:34:06;;;;;;;8.77;2.43;;;18.10;99.90;;;;;;5055832;28;20576;-81
2022/07/14 05:36:34;;;;;;;11.33;3.00;;;18.10;99.90;;;;;;5055736;28;20840;-81
2022/07/14 05:39:01;;;;;;;12.67;3.20;;;18.10;99.90;;;;;;5056214;28;20565;-81
2022/07/14 05:41:28;;;;;;;12.90;3.57;;;18.10;99.90;;;;;;5056916;28;20600;-81
2022/07/14 05:43:55;;;;;;;9.87;3.27;;;18.10;99.90;;;;;;5055628;28;20494;-81
2022/07/14 05:46:22;;;;;;;9.27;3.23;;;18.20;99.90;;;;;;5057992;28;21063;-81
2022/07/14 05:48:49;;;;;;;11.33;2.97;;;18.20;99.90;;;;;;5056427;28;20484;-82
2022/07/14 05:51:17;;;;;;;8.03;3.57;;;18.20;99.90;;;;;;5057257;28;20492;-82
2022/07/14 05:53:47;;;;;;;14.60;3.60;;;18.20;99.90;;;;;;5052530;28;20522;-83
2022/07/14 05:56:16;;;;;;;13.40;3.37;;;18.20;99.90;;;;;;5065091;28;20896;-82
2022/07/14 05:58:44;;;;;;;8.23;3.27;;;18.30;99.90;;;;;;5076915;28;20853;-83
2022/07/14 06:01:12;;;;;;;6.67;3.20;;;18.30;99.90;;;;;;5077908;28;20448;-81
2022/07/14 06:03:40;;;;;;;15.43;3.17;;;18.30;99.90;;;;;;5076773;28;20544;-83
2022/07/14 06:06:08;;;;;;;14.93;3.60;;;18.40;99.90;;;;;;5077269;28;20461;-82
2022/07/14 06:08:36;;;;;;;12.10;3.23;;;18.50;99.90;;;;;;5075821;28;21031;-81
2022/07/14 06:11:06;;;;;;;7.43;3.50;;;18.60;99.90;;;;;;5056229;28;20787;-83
2022/07/14 06:13:33;;;;;;;12.57;3.47;;;18.80;99.90;;;;;;5054661;28;20487;-82
2022/07/14 06:16:01;;;;;;;14.10;3.43;;;18.80;99.90;;;;;;5054461;28;20557;-82
2022/07/14 06:18:28;;;;;;;14.00;3.37;;;19.00;99.90;;;;;;5054682;28;20507;-82
2022/07/14 06:20:55;;;;;;;7.53;3.23;;;19.10;99.90;;;;;;5054080;28;20825;-82
2022/07/14 06:23:22;;;;;;;14.87;3.50;;;19.20;99.90;;;;;;5053203;28;20456;-81
2022/07/14 06:25:49;;;;;;;9.40;3.07;;;19.20;99.90;;;;;;5052466;28;20462;-82
2022/07/14 06:28:22;;;;;;;12.93;3.80;;;19.30;99.90;;;;;;5053940;28;20475;-83
2022/07/14 06:30:51;;;;;;;11.43;4.00;;;19.30;99.90;;;;;;5055300;28;20456;-81
2022/07/14 06:33:18;;;;;;;10.40;3.23;;;19.40;99.90;;;;;;5056100;28;20594;-80
2022/07/14 06:35:47;;;;;;;14.87;3.30;;;19.40;99.90;;;;;;5055017;28;20447;-83
2022/07/14 06:38:14;;;;;;;17.33;3.53;;;19.50;99.90;;;;;;5052194;28;20973;-84
2022/07/14 06:40:40;;;;;;;9.50;2.97;;;19.50;99.90;;;;;;5070838;28;20478;-81
2022/07/14 06:43:07;;;;;;;11.07;3.27;;;19.50;99.90;;;;;;5053448;28;20510;-81
2022/07/14 06:45:35;;;;;;;11.53;2.77;;;19.50;99.90;;;;;;5051833;28;20539;-80
2022/07/14 06:48:03;;;;;;;9.33;3.10;;;19.60;99.90;;;;;;5050627;28;20586;-81
2022/07/14 06:50:29;;;;;;;13.17;3.47;;;19.60;99.90;;;;;;5060709;28;20475;-83
2022/07/14 06:53:04;;;;;;;9.10;2.97;;;19.60;99.90;;;;;;5052199;28;20521;-82
2022/07/14 06:55:34;;;;;;;15.13;3.73;;;19.70;99.90;;;;;;5048024;28;20452;-82
2022/07/14 06:58:01;;;;;;;10.60;3.03;;;19.90;99.90;;;;;;5047758;28;20537;-84
2022/07/14 07:00:28;;;;;;;9.80;2.60;;;20.00;99.90;;;;;;5047145;28;20563;-82
2022/07/14 07:02:56;;;;;;;9.80;3.60;;;20.10;99.90;;;;;;5046644;28;20494;-82
2022/07/14 07:08:08;;;;;;;9.07;2.93;;;20.20;99.90;;;;;;5042841;28;20458;-82
2022/07/14 07:10:40;;;;;;;10.17;3.23;;;20.10;99.90;;;;;;5063863;28;20447;-82
2022/07/14 07:13:07;;;;;;;18.80;4.23;;;20.20;99.90;;;;;;5054945;28;20505;-82
2022/07/14 07:15:37;;;;;;;8.23;2.97;;;20.30;99.90;;;;;;5048538;28;20479;-82
2022/07/14 07:18:06;;;;;;;15.20;4.57;;;20.40;99.90;;;;;;5057497;28;20560;-84
2022/07/14 07:20:33;;;;;;;9.37;3.30;;;20.40;99.90;;;;;;5057375;28;20538;-83
2022/07/14 07:23:00;;;;;;;9.23;3.03;;;20.50;99.90;;;;;;5058934;28;20841;-85
2022/07/14 07:25:27;;;;;;;14.53;3.97;;;20.50;99.90;;;;;;5061455;28;20482;-83
2022/07/14 07:27:54;;;;;;;11.50;3.30;;;20.50;99.90;;;;;;5063217;28;20539;-85
2022/07/14 07:30:21;;;;;;;9.83;3.97;;;20.50;99.90;;;;;;5059036;28;20494;-84
2022/07/14 07:32:48;;;;;;;9.47;3.73;;;20.50;99.90;;;;;;5050233;28;20520;-82
2022/07/14 07:35:17;;;;;;;11.40;4.00;;;20.50;99.90;;;;;;5052678;28;20492;-84
2022/07/14 07:37:44;;;;;;;8.77;3.33;;;20.50;99.90;;;;;;5051808;28;20559;-83
2022/07/14 07:40:11;;;;;;;12.73;3.33;;;20.60;99.90;;;;;;5050972;28;20828;-84
2022/07/14 07:42:38;;;;;;;9.90;3.73;;;20.80;99.90;;;;;;5053777;28;20536;-84
2022/07/14 07:45:06;;;;;;;10.73;3.70;;;21.10;99.90;;;;;;5059416;28;20444;-83
2022/07/14 07:47:33;;;;;;;12.33;3.70;;;21.20;99.90;;;;;;5059733;28;20455;-84
2022/07/14 07:50:01;;;;;;;9.17;3.70;;;21.40;99.90;;;;;;5057013;28;20471;-84
2022/07/14 07:52:29;;;;;;;13.20;3.73;;;21.50;99.90;;;;;;5055067;28;20521;-83
2022/07/14 07:54:56;;;;;;;10.80;4.63;;;21.60;99.90;;;;;;5059434;28;20578;-85
2022/07/14 07:57:23;;;;;;;7.13;3.50;;;21.50;99.90;;;;;;5049026;28;21099;-83
2022/07/14 07:59:50;;;;;;;9.00;3.73;;;21.50;99.90;;;;;;5057371;28;20499;-82
2022/07/14 08:02:17;;;;;;;10.43;5.30;;;21.40;99.90;;;;;;5055844;28;20452;-84
2022/07/14 08:04:44;;;;;;;19.43;5.30;;;21.30;99.90;;;;;;5056617;28;20480;-83
2022/07/14 08:07:13;;;;;;;9.10;4.50;;;20.90;99.90;;;;;;5059504;28;20484;-82
2022/07/14 08:09:41;;;;;;;8.73;3.33;;;20.80;99.90;;;;;;5062314;28;20482;-82
2022/07/14 08:12:08;;;;;;;10.87;3.70;;;20.70;99.90;;;;;;5051435;28;20480;-83
2022/07/14 08:14:51;;;;;;;6.20;3.00;;;20.70;99.90;;;;;;5048456;28;20530;-82
2022/07/14 08:17:19;;;;;;;12.57;4.00;;;20.80;99.90;;;;;;5049228;28;20895;-83
2022/07/14 08:19:46;;;;;;;12.33;3.90;;;20.90;99.90;;;;;;5051947;28;20476;-84
2022/07/14 08:22:18;;;;;;;9.23;3.20;;;21.20;99.90;;;;;;5048145;28;20447;-83
2022/07/14 08:25:00;;;;;;;9.67;4.50;;;21.60;99.90;;;;;;5054339;28;20443;-83
2022/07/14 08:27:31;;;;;;;8.87;2.60;;;21.80;99.90;;;;;;5054636;28;20467;-82
2022/07/14 08:29:58;;;;;;;10.47;2.70;;;22.00;99.90;;;;;;5055531;28;20467;-83
2022/07/14 08:32:38;;;;;;;9.93;2.87;;;22.00;99.90;;;;;;5055612;28;20838;-83
2022/07/14 08:35:09;;;;;;;6.50;2.37;;;22.20;99.90;;;;;;5057949;28;20574;-84
2022/07/14 08:37:37;;;;;;;12.13;3.00;;;22.50;99.90;;;;;;5058222;28;20490;-82
2022/07/14 08:40:08;;;;;;;8.83;2.70;;;22.50;99.90;;;;;;5058845;28;20483;-84
2022/07/14 08:42:36;;;;;;;11.33;2.70;;;22.50;99.90;;;;;;5067057;28;20570;-81
2022/07/14 08:45:08;;;;;;;5.80;2.83;;;22.60;99.90;;;;;;5068288;28;20521;-82
2022/07/14 08:47:36;;;;;;;7.07;2.70;;;22.70;99.90;;;;;;5053438;28;20467;-82
2022/07/14 08:50:04;;;;;;;8.70;2.23;;;23.00;99.90;;;;;;5056247;28;20527;-82
2022/07/14 08:52:32;;;;;;;10.90;3.10;;;23.10;99.90;;;;;;5052365;28;20452;-82
2022/07/14 08:55:00;;;;;;;9.40;2.90;;;23.30;99.90;;;;;;5054370;28;20566;-82
2022/07/14 08:57:28;;;;;;;6.17;2.17;;;23.40;99.90;;;;;;5055570;28;20485;-82
2022/07/14 08:59:55;;;;;;;6.73;2.03;;;23.60;99.90;;;;;;5052575;28;20474;-83
2022/07/14 09:02:22;;;;;;;8.00;2.40;;;23.60;99.90;;;;;;5046727;28;20502;-83
2022/07/14 09:04:49;;;;;;;6.70;2.20;;;23.80;99.90;;;;;;5054390;28;20513;-82
2022/07/14 09:07:31;;;;;;;7.17;2.27;;;23.90;99.90;;;;;;5055179;28;20556;-84
2022/07/14 09:10:07;;;;;;;4.60;1.50;;;24.20;99.90;;;;;;5041049;28;20478;-83
2022/07/14 09:12:35;;;;;;;7.53;2.20;;;24.40;99.90;;;;;;5054853;28;20459;-82
2022/07/14 09:17:52;;;;;;;8.70;2.07;;;24.70;99.90;;;;;;5053480;28;20588;-83
2022/07/14 09:20:20;;;;;;;4.57;1.40;;;24.90;99.90;;;;;;5054401;28;20511;-82
2022/07/14 09:22:47;;;;;;;6.40;1.60;;;25.00;99.90;;;;;;5054635;28;20546;-83
2022/07/14 09:25:17;;;;;;;6.13;1.87;;;25.20;99.90;;;;;;5047583;28;20455;-81
2022/07/14 09:27:47;;;;;;;7.50;2.00;;;25.30;99.90;;;;;;5055463;28;20487;-81
2022/07/14 09:30:16;;;;;;;9.17;1.80;;;25.50;99.90;;;;;;5053525;28;20468;-81
2022/07/14 09:32:47;;;;;;;4.80;1.47;;;25.60;99.90;;;;;;5053501;28;20550;-81
2022/07/14 09:35:17;;;;;;;3.20;1.40;;;25.60;99.90;;;;;;5053423;28;20476;-83
2022/07/14 09:37:44;;;;;;;5.27;1.47;;;25.70;99.90;;;;;;5053989;28;20460;-85
2022/07/14 09:40:15;;;;;;;7.17;1.80;;;25.90;99.90;;;;;;5053012;28;20520;-84
2022/07/14 09:42:52;;;;;;;5.27;1.50;;;26.00;99.90;;;;;;5050900;28;20463;-83
2022/07/14 09:45:20;;;;;;;6.70;1.97;;;26.10;99.90;;;;;;5051328;28;20440;-82
2022/07/14 09:47:59;;;;;;;4.03;1.40;;;26.20;99.90;;;;;;5061244;28;20540;-81
2022/07/14 09:50:33;;;;;;;4.77;1.47;;;26.40;99.90;;;;;;5056686;28;20551;-84
2022/07/14 09:53:14;;;;;;;4.87;1.30;;;26.50;99.90;;;;;;5055305;28;20486;-81
2022/07/14 09:55:44;;;;;;;4.63;1.50;;;26.60;99.90;;;;;;5056335;28;20592;-83
2022/07/14 09:58:13;;;;;;;3.60;1.20;;;26.40;99.90;;;;;;5057507;28;20897;-82
2022/07/14 10:00:42;;;;;;;3.80;1.03;;;26.30;99.90;;;;;;5055641;28;20456;-82
2022/07/14 10:03:09;;;;;;;5.90;1.57;;;26.40;99.90;;;;;;5054167;28;20495;-83
2022/07/14 10:05:38;;;;;;;4.93;1.70;;;26.40;99.90;;;;;;5055012;28;21012;-84
2022/07/14 10:08:08;;;;;;;3.50;1.13;;;26.60;99.90;;;;;;5052911;28;20514;-84
2022/07/14 10:10:36;;;;;;;4.70;1.63;;;27.00;99.90;;;;;;5052268;28;20467;-84
2022/07/14 10:13:05;;;;;;;3.93;1.20;;;27.10;99.90;;;;;;5056227;28;20487;-84
2022/07/14 10:15:33;;;;;;;5.53;1.40;;;27.20;99.90;;;;;;5054641;28;20491;-84
2022/07/14 10:18:03;;;;;;;5.53;1.90;;;27.30;99.90;;;;;;5054554;28;20532;-82
2022/07/14 10:20:31;;;;;;;9.03;1.60;;;27.40;99.90;;;;;;5055075;28;20547;-82
2022/07/14 10:22:59;;;;;;;4.60;1.20;;;27.00;99.90;;;;;;5056039;28;20542;-85
2022/07/14 10:25:25;;;;;;;4.63;1.30;;;27.00;99.90;;;;;;5059832;28;20436;-85
2022/07/14 10:27:54;;;;;;;7.00;1.63;;;26.90;99.90;;;;;;5057190;28;20460;-83
2022/07/14 10:30:32;;;;;;;4.87;1.30;;;27.30;99.90;;;;;;5061778;28;20459;-83
2022/07/14 10:33:05;;;;;;;6.90;1.67;;;27.60;99.90;;;;;;5061019;28;20495;-82
2022/07/14 10:36:01;;;;;;;3.47;1.40;;;27.90;99.90;;;;;;5057746;28;20996;-81
2022/07/14 10:39:01;;;;;;;5.37;1.37;;;28.00;99.90;;;;;;5060274;28;20486;-82
2022/07/14 10:41:56;;;;;;;3.00;1.00;;;28.20;99.90;;;;;;5061826;28;20881;-81
2022/07/14 10:44:26;;;;;;;3.53;1.30;;;28.30;99.90;;;;;;5066977;28;20444;-82
2022/07/14 10:47:07;;;;;;;5.80;1.20;;;28.60;99.90;;;;;;5075650;28;20443;-85
2022/07/14 10:50:05;;;;;;;3.40;1.00;;;28.50;99.90;;;;;;5060626;28;20537;-84
2022/07/14 10:52:35;;;;;;;5.37;1.20;;;28.80;99.90;;;;;;5049394;28;20552;-84
2022/07/14 10:55:13;;;;;;;4.13;1.20;;;28.90;99.90;;;;;;5055859;28;20479;-85
2022/07/14 10:57:40;;;;;;;3.83;1.27;;;28.90;97.90;;;;;;5061443;28;20831;-82
2022/07/14 11:00:28;;;;;;;3.90;1.20;;;29.00;99.90;;;;;;5059628;28;20512;-85
2022/07/14 11:03:18;;;;;;;4.57;1.27;;;29.30;99.90;;;;;;5064498;28;20964;-82
2022/07/14 11:06:14;;;;;;;3.90;1.20;;;29.60;99.90;;;;;;5058821;28;20519;-82
2022/07/14 11:08:42;;;;;;;4.50;1.27;;;29.90;99.90;;;;;;5060499;28;20477;-84
2022/07/14 11:11:17;;;;;;;3.10;1.30;;;30.10;99.90;;;;;;5063051;28;20531;-83
2022/07/14 11:14:24;;;;;;;2.73;1.10;;;30.40;99.90;;;;;;5056361;28;21058;-84
2022/07/14 11:17:00;;;;;;;4.07;1.40;;;30.80;99.90;;;;;;4993517;28;20443;-83
2022/07/14 11:19:32;;;;;;;4.03;1.40;;;30.90;98.40;;;;;;5052201;28;20486;-83
2022/07/14 11:22:16;;;;;;;4.63;1.20;;;31.20;98.50;;;;;;5058371;28;20444;-83
2022/07/14 11:24:52;;;;;;;3.80;1.10;;;31.20;94.70;;;;;;5059108;28;20485;-81
2022/07/14 11:27:41;;;;;;;4.60;1.47;;;31.30;91.90;;;;;;5060817;28;20452;-82
2022/07/14 11:30:22;;;;;;;5.77;1.57;;;31.30;95.50;;;;;;5049739;28;20479;-84
2022/07/14 11:32:59;;;;;;;3.00;1.03;;;31.30;93.90;;;;;;5060134;28;20456;-82
2022/07/14 11:38:30;;;;;;;4.40;1.60;;;31.70;90.10;;;;;;5046975;28;20530;-82
2022/07/14 11:40:58;;;;;;;2.73;1.17;;;31.80;82.80;;;;;;5062357;28;20482;-81
2022/07/14 11:43:50;;;;;;;3.60;1.50;;;31.80;85.70;;;;;;5063228;28;20535;-83
2022/07/14 11:46:19;;;;;;;4.13;1.03;;;31.60;87.30;;;;;;5049474;28;20853;-82
2022/07/14 11:48:50;;;;;;;6.83;1.87;;;31.70;85.00;;;;;;5048903;28;20483;-86
2022/07/14 11:51:22;;;;;;;5.40;1.73;;;31.90;88.40;;;;;;5060180;28;20485;-82
2022/07/14 11:53:56;;;;;;;3.53;1.23;;;32.10;80.00;;;;;;5059902;28;20490;-82
2022/07/14 11:56:24;;;;;;;6.77;1.07;;;32.00;81.60;;;;;;5059938;28;20513;-84
2022/07/14 11:58:51;;;;;;;7.20;2.17;;;32.10;81.60;;;;;;5060760;28;20472;-83
2022/07/14 12:01:18;;;;;;;7.37;1.50;;;32.40;85.30;;;;;;5061494;28;20472;-84
2022/07/14 12:03:46;;;;;;;3.60;1.00;;;32.50;76.20;;;;;;5060266;28;20463;-83
2022/07/14 12:06:14;;;;;;;6.90;1.37;;;32.30;78.60;;;;;;5062118;28;20489;-82
2022/07/14 12:08:43;;;;;;;2.87;1.40;;;32.40;79.60;;;;;;5063019;28;20464;-83
2022/07/14 12:11:13;;;;;;;3.10;1.30;;;32.50;77.90;;;;;;5061756;28;20444;-82
2022/07/14 12:13:50;;;;;;;3.03;1.50;;;32.40;83.80;;;;;;5064317;28;20486;-83
2022/07/14 12:16:18;;;;;;;2.67;1.20;;;32.50;80.40;;;;;;5062441;28;20514;-83
2022/07/14 12:18:45;;;;;;;3.00;1.50;;;32.70;73.70;;;;;;5061885;28;20474;-83
2022/07/14 12:21:12;;;;;;;3.80;1.43;;;32.80;76.00;;;;;;5061230;28;20479;-84
2022/07/14 12:23:52;;;;;;;3.60;1.13;;;32.90;70.80;;;;;;5060150;28;20500;-83
2022/07/14 12:26:23;;;;;;;3.00;1.30;;;32.80;77.60;;;;;;5059895;28;20448;-82
2022/07/14 12:28:51;;;;;;;5.53;1.60;;;32.40;68.00;;;;;;5062274;28;20546;-85
2022/07/14 12:31:19;;;;;;;5.10;1.20;;;32.10;77.90;;;;;;5061221;28;20479;-82
2022/07/14 12:33:47;;;;;;;3.83;1.37;;;32.20;79.70;;;;;;5060597;28;20476;-82
2022/07/14 12:36:16;;;;;;;4.47;1.57;;;32.20;74.80;;;;;;5060997;28;20506;-82
2022/07/14 12:38:44;;;;;;;4.33;1.37;;;32.00;69.30;;;;;;5066778;28;20499;-83
2022/07/14 12:41:11;;;;;;;6.17;1.60;;;31.60;71.40;;;;;;5069157;28;20503;-84
2022/07/14 12:43:42;;;;;;;5.23;1.30;;;31.00;72.70;;;;;;5069282;28;20443;-83
2022/07/14 12:46:11;;;;;;;5.37;1.60;;;31.10;73.60;;;;;;5054395;28;20467;-85
2022/07/14 12:48:57;;;;;;;3.67;1.60;;;31.00;72.80;;;;;;5084829;28;20502;-86
2022/07/14 12:51:26;;;;;;;5.93;1.50;;;30.70;72.00;;;;;;5074299;28;20432;-83
2022/07/14 12:54:01;;;;;;;5.47;1.37;;;30.80;79.30;;;;;;5068259;28;20510;-82
2022/07/14 12:56:29;;;;;;;4.20;1.10;;;30.90;75.80;;;;;;5062642;28;20491;-84
2022/07/14 12:58:59;;;;;;;4.50;1.50;;;31.60;75.20;;;;;;5060339;28;20506;-85
2022/07/14 13:01:26;;;;;;;4.00;1.40;;;32.10;73.50;;;;;;5064703;28;20530;-82
2022/07/14 13:04:00;;;;;;;4.37;1.20;;;32.70;76.30;;;;;;5060748;28;20456;-84
2022/07/14 13:06:29;;;;;;;4.37;1.40;;;33.10;71.00;;;;;;5048592;28;20455;-83
2022/07/14 13:08:56;;;;;;;3.40;1.43;;;33.30;70.80;;;;;;5064358;28;20470;-83